Hamilton, Alabama
Current Conditions -  °F | °C
As of 3:10 PM on Sunday 23 Nov 2014 (Local Time) from K1M4 Reporting Station
Broken Clouds Broken Clouds  
Wind Chill: 61°   Ceiling: 1700
Heat Index: 61°   Visibility: 10mi
Dew Point: 61°   Wind: 14mph
Humidity: 100%   Direction: 180°S
Pressure: 29.49"   Gusts: NA
Location:  34.14°N, 87.99°W
Report Text: K1M4 232110Z AUTO 18012KT 10SM SCT008 BKN017 BKN025 16/16 A2949 RMK AO2 BKN V SCT RAB2057E01 P0000
Loading
Personal Weather Stations






























Interactive Weather Map New forecast layout! Learn more

10-Day Weather Forecast

Advertisements
Track Severe Weather on mobile